Time;durP1;ratioP1;P1;durP2;ratioP2;P2;SDS_P1;SDS_P2;PMS_P1;PMS_P2;Temp;Humidity;BMP_temperature;BMP_pressure;BME280_temperature;BME280_humidity;BME280_pressure;Samples;Min_cycle;Max_cycle;Signal;HPM_P1;HPM_P2
2022/10/03 00:00:36;;;;;;;6.47;1.52;;;;;;;14.78;100.00;101314.06;5044840;28;20043;-68
2022/10/03 00:03:28;;;;;;;1.38;0.50;;;;;;;14.91;99.95;101323.53;5043500;28;20128;-68
2022/10/03 00:06:09;;;;;;;2.00;0.75;;;;;;;14.84;99.64;101326.16;5045464;28;20041;-68
2022/10/03 00:08:48;;;;;;;4.85;0.68;;;;;;;14.82;100.00;101331.16;5047450;28;20481;-68
2022/10/03 00:11:58;;;;;;;3.53;0.30;;;;;;;14.80;100.00;101323.41;5046642;28;20033;-67
2022/10/03 00:14:30;;;;;;;1.63;0.60;;;;;;;14.77;100.00;101339.63;5023866;28;20049;-67
2022/10/03 00:17:11;;;;;;;0.60;0.50;;;;;;;14.74;100.00;101333.00;5048881;28;20060;-68
2022/10/03 00:20:18;;;;;;;4.68;0.90;;;;;;;14.73;100.00;101330.66;5048848;28;20124;-68
2022/10/03 00:22:58;;;;;;;4.20;0.40;;;;;;;14.59;100.00;101341.28;5020996;28;20518;-68
2022/10/03 00:25:27;;;;;;;3.92;1.10;;;;;;;14.48;100.00;101344.63;5042735;28;20024;-68
2022/10/03 00:28:01;;;;;;;7.68;0.55;;;;;;;14.52;100.00;101336.53;5048323;28;20049;-68
2022/10/03 00:30:35;;;;;;;1.75;0.40;;;;;;;14.45;100.00;101345.34;5043686;28;20040;-67
2022/10/03 00:33:20;;;;;;;3.65;0.70;;;;;;;14.40;100.00;101347.59;5044227;28;20063;-69
2022/10/03 00:36:12;;;;;;;2.15;0.30;;;;;;;14.44;100.00;101340.28;5042534;28;20547;-68
2022/10/03 00:39:01;;;;;;;0.57;0.30;;;;;;;14.43;100.00;101347.63;5047478;28;20029;-68
2022/10/03 00:41:54;;;;;;;5.15;1.00;;;;;;;14.52;100.00;101343.91;5040282;28;20037;-68
2022/10/03 00:44:36;;;;;;;1.67;0.55;;;;;;;14.54;100.00;101353.22;5035469;28;20107;-68
2022/10/03 00:47:31;;;;;;;3.88;0.60;;;;;;;14.61;100.00;101357.97;5047266;28;20511;-67
2022/10/03 00:50:06;;;;;;;2.70;0.88;;;;;;;14.73;100.00;101358.53;5048057;28;20028;-68
2022/10/03 00:53:16;;;;;;;2.03;0.45;;;;;;;14.72;100.00;101358.91;5038448;28;20041;-67
2022/10/03 00:56:26;;;;;;;3.33;0.70;;;;;;;14.62;100.00;101349.47;5027646;28;20060;-68
2022/10/03 00:58:57;;;;;;;3.75;0.70;;;;;;;14.60;100.00;101357.19;4989288;28;20093;-67
2022/10/03 01:01:29;;;;;;;6.32;0.50;;;;;;;14.51;100.00;101361.28;5038382;28;20497;-67
2022/10/03 01:03:58;;;;;;;2.10;0.40;;;;;;;14.61;100.00;101352.56;5049610;28;20085;-68
2022/10/03 01:07:00;;;;;;;2.85;0.20;;;;;;;14.65;100.00;101356.09;5051600;28;20037;-67
2022/10/03 01:09:50;;;;;;;3.13;0.82;;;;;;;14.60;100.00;101351.75;5038603;28;20045;-67
2022/10/03 01:12:31;;;;;;;1.83;0.57;;;;;;;14.43;100.00;101366.63;5040067;28;20068;-67
2022/10/03 01:15:12;;;;;;;0.52;0.20;;;;;;;14.48;100.00;101364.75;5047597;28;20045;-67
2022/10/03 01:17:46;;;;;;;5.30;0.22;;;;;;;14.48;100.00;101359.31;5049463;28;20056;-68
2022/10/03 01:20:32;;;;;;;1.98;0.88;;;;;;;14.58;100.00;101364.09;5045155;28;20095;-68
2022/10/03 01:23:16;;;;;;;2.20;0.40;;;;;;;14.72;100.00;101369.75;5044107;28;20044;-67
2022/10/03 01:26:04;;;;;;;5.85;0.85;;;;;;;14.61;100.00;101368.81;5050183;28;20111;-67
2022/10/03 01:31:53;;;;;;;5.18;0.52;;;;;;;14.52;100.00;101376.44;5049592;28;20045;-68
2022/10/03 01:34:29;;;;;;;4.35;0.75;;;;;;;14.48;100.00;101382.56;5047054;28;20610;-68
2022/10/03 01:37:16;;;;;;;1.70;1.10;;;;;;;14.62;100.00;101375.78;5050674;28;20378;-68
2022/10/03 01:39:47;;;;;;;5.05;0.57;;;;;;;14.75;100.00;101379.88;5043396;28;20058;-68
2022/10/03 01:42:51;;;;;;;1.60;0.40;;;;;;;14.71;100.00;101379.03;5043111;28;20029;-68
2022/10/03 01:45:28;;;;;;;2.78;0.98;;;;;;;14.83;100.00;101376.91;5047357;28;20501;-68
2022/10/03 01:48:33;;;;;;;3.38;1.27;;;;;;;14.58;100.00;101373.03;5041644;28;20108;-68
2022/10/03 01:51:15;;;;;;;3.70;0.50;;;;;;;14.33;100.00;101383.47;5046631;28;20032;-68
2022/10/03 01:54:07;;;;;;;4.63;0.65;;;;;;;14.45;100.00;101383.28;5024953;28;20045;-68
2022/10/03 01:56:48;;;;;;;6.65;0.77;;;;;;;14.52;100.00;101388.03;5033008;28;20060;-68
2022/10/03 01:59:37;;;;;;;2.08;0.60;;;;;;;14.49;100.00;101396.91;5046387;28;20044;-67
2022/10/03 02:02:16;;;;;;;1.95;0.63;;;;;;;14.34;100.00;101395.09;5041917;28;20045;-67
2022/10/03 02:05:00;;;;;;;3.13;0.55;;;;;;;14.37;100.00;101397.06;5042048;28;20489;-67
2022/10/03 02:07:54;;;;;;;1.63;0.40;;;;;;;14.28;100.00;101405.47;5045383;28;20436;-67
2022/10/03 02:10:23;;;;;;;3.00;0.77;;;;;;;14.27;100.00;101400.34;5045920;28;20494;-68
2022/10/03 02:13:11;;;;;;;6.13;0.30;;;;;;;14.33;100.00;101407.06;5047565;28;20052;-68
2022/10/03 02:16:01;;;;;;;0.45;0.38;;;;;;;14.29;100.00;101401.59;5045478;28;20041;-68
2022/10/03 02:18:37;;;;;;;0.75;0.45;;;;;;;14.28;100.00;101410.09;5042348;28;20044;-68
2022/10/03 02:21:17;;;;;;;11.10;0.70;;;;;;;14.41;100.00;101409.56;5045777;28;20039;-68
2022/10/03 02:23:44;;;;;;;3.15;0.85;;;;;;;14.44;100.00;101408.81;5047609;28;20511;-67
2022/10/03 02:26:25;;;;;;;4.03;0.65;;;;;;;14.27;100.00;101409.31;5044104;28;20041;-68
2022/10/03 02:29:06;;;;;;;6.97;0.93;;;;;;;14.34;100.00;101414.06;5042705;28;20034;-68
2022/10/03 02:31:59;;;;;;;0.22;0.13;;;;;;;14.35;100.00;101416.41;5041711;28;20074;-68
2022/10/03 02:34:43;;;;;;;3.72;0.52;;;;;;;14.34;100.00;101422.97;5048718;28;20029;-67
2022/10/03 02:37:36;;;;;;;5.50;0.43;;;;;;;14.23;100.00;101424.69;5044221;28;20048;-67
2022/10/03 02:40:31;;;;;;;2.67;0.30;;;;;;;14.31;100.00;101426.41;5040794;28;20037;-67
2022/10/03 02:43:15;;;;;;;4.70;0.73;;;;;;;14.28;100.00;101429.06;5040119;28;20039;-68
2022/10/03 02:46:02;;;;;;;2.05;0.35;;;;;;;14.21;100.00;101439.72;5043056;28;20033;-67
2022/10/03 02:48:46;;;;;;;2.42;0.25;;;;;;;14.02;100.00;101437.84;5048567;28;20037;-68
2022/10/03 02:51:28;;;;;;;2.67;0.43;;;;;;;14.08;100.00;101438.31;5040211;28;20087;-67
2022/10/03 02:54:23;;;;;;;1.23;0.73;;;;;;;13.95;100.00;101443.13;5049470;28;20036;-67
2022/10/03 02:57:10;;;;;;;0.68;0.50;;;;;;;13.89;100.00;101444.56;5044220;28;20041;-68
2022/10/03 02:59:54;;;;;;;1.00;0.30;;;;;;;14.00;100.00;101444.75;5043946;28;20036;-67
2022/10/03 03:03:04;;;;;;;1.35;0.38;;;;;;;14.02;100.00;101445.97;5045333;28;20024;-68
2022/10/03 03:06:16;;;;;;;2.25;1.15;;;;;;;13.86;100.00;101452.63;5024597;28;20040;-67
2022/10/03 03:08:54;;;;;;;;;;;;;;;14.08;100.00;101455.38;5044242;28;20040;-68
2022/10/03 03:12:07;;;;;;;2.42;0.60;;;;;;;13.93;100.00;101450.81;5041670;28;19920;-67
2022/10/03 03:14:47;;;;;;;4.47;0.70;;;;;;;13.86;100.00;101447.97;5035732;28;20068;-67
2022/10/03 03:17:40;;;;;;;2.50;0.60;;;;;;;13.83;100.00;101453.31;5037955;28;20033;-67
2022/10/03 03:20:38;;;;;;;2.03;0.77;;;;;;;13.75;100.00;101459.72;5038556;28;20454;-68
2022/10/03 03:23:15;;;;;;;6.05;0.65;;;;;;;13.66;100.00;101454.53;5048091;28;20111;-68
2022/10/03 03:25:48;;;;;;;1.40;0.60;;;;;;;13.73;100.00;101453.88;5041630;28;20057;-68
2022/10/03 03:28:26;;;;;;;2.13;0.60;;;;;;;13.92;100.00;101464.69;5046956;28;20020;-68
2022/10/03 03:31:05;;;;;;;1.83;0.50;;;;;;;13.84;100.00;101465.72;5048907;28;20097;-68
2022/10/03 03:33:44;;;;;;;6.40;0.90;;;;;;;13.93;100.00;101467.06;5046252;28;20028;-68
2022/10/03 03:36:23;;;;;;;3.35;0.32;;;;;;;14.02;100.00;101469.53;5042831;28;20076;-68
2022/10/03 03:39:25;;;;;;;4.53;0.40;;;;;;;14.12;100.00;101467.06;5042153;28;20557;-67
2022/10/03 03:42:11;;;;;;;4.90;0.70;;;;;;;14.16;100.00;101467.91;5046226;28;20473;-68
2022/10/03 03:44:58;;;;;;;4.30;0.60;;;;;;;13.83;100.00;101470.34;5037919;28;20278;-68
2022/10/03 03:47:42;;;;;;;1.80;0.45;;;;;;;13.87;100.00;101467.69;5047988;28;20041;-68
2022/10/03 03:50:29;;;;;;;1.73;0.52;;;;;;;13.88;100.00;101472.75;5042209;28;20404;-67
2022/10/03 03:52:54;;;;;;;4.38;0.30;;;;;;;13.93;100.00;101474.41;5046699;28;20074;-68
2022/10/03 03:55:47;;;;;;;5.57;0.55;;;;;;;13.65;100.00;101469.19;5041330;28;20095;-67
2022/10/03 03:58:18;;;;;;;2.25;0.50;;;;;;;13.67;100.00;101476.94;5036190;28;20486;-68
2022/10/03 04:00:56;;;;;;;;;;;;;;;13.77;100.00;101468.25;5043329;28;20031;-68
2022/10/03 04:03:47;;;;;;;2.50;0.50;;;;;;;13.80;100.00;101476.44;5038765;28;19920;-67
2022/10/03 04:06:58;;;;;;;1.05;0.20;;;;;;;13.82;100.00;101473.41;5040259;28;20079;-68
2022/10/03 04:09:35;;;;;;;3.75;0.57;;;;;;;13.92;100.00;101470.91;5041450;28;20036;-68
2022/10/03 04:12:14;;;;;;;8.60;1.05;;;;;;;13.77;100.00;101482.59;5044738;28;20446;-68
2022/10/03 04:15:14;;;;;;;2.72;0.47;;;;;;;13.68;100.00;101479.31;5044438;28;20146;-67
2022/10/03 04:21:10;;;;;;;2.90;0.38;;;;;;;13.73;100.00;101487.16;5044097;28;20037;-68
2022/10/03 04:24:00;;;;;;;3.92;0.35;;;;;;;13.74;100.00;101477.91;5048925;28;20739;-68
2022/10/03 04:26:47;;;;;;;6.18;0.80;;;;;;;13.55;100.00;101486.75;5045850;28;20489;-67
2022/10/03 04:29:15;;;;;;;0.30;0.30;;;;;;;13.51;100.00;101491.31;5049833;28;20029;-68
2022/10/03 04:32:09;;;;;;;2.05;0.50;;;;;;;13.64;100.00;101488.50;5048540;28;20032;-67
2022/10/03 04:35:00;;;;;;;1.60;0.70;;;;;;;13.73;100.00;101489.84;5045252;28;20037;-67
2022/10/03 04:37:31;;;;;;;15.45;0.82;;;;;;;13.68;100.00;101483.94;5047990;28;20033;-67
2022/10/03 04:40:10;;;;;;;0.85;0.20;;;;;;;13.62;100.00;101496.97;5051844;28;20036;-68
2022/10/03 04:43:03;;;;;;;1.95;0.55;;;;;;;13.77;100.00;101493.41;5048926;28;20048;-68
2022/10/03 04:45:44;;;;;;;1.38;0.50;;;;;;;13.83;100.00;101488.50;5049617;28;20078;-67
2022/10/03 04:49:00;;;;;;;2.42;0.38;;;;;;;13.73;100.00;101497.19;5050413;28;20028;-68
2022/10/03 04:52:03;;;;;;;1.98;0.47;;;;;;;13.67;100.00;101498.59;5026980;28;20045;-67
2022/10/03 04:54:47;;;;;;;2.65;0.45;;;;;;;13.67;100.00;101499.38;5050917;28;20458;-67
2022/10/03 04:57:41;;;;;;;5.78;0.77;;;;;;;13.51;100.00;101504.84;5048727;28;20041;-67
2022/10/03 05:00:28;;;;;;;4.75;0.55;;;;;;;13.51;100.00;101509.50;5051193;28;20052;-67
2022/10/03 05:02:56;;;;;;;1.08;0.38;;;;;;;13.68;100.00;101511.00;5050668;28;20053;-67
2022/10/03 05:05:26;;;;;;;2.47;0.75;;;;;;;13.57;100.00;101505.34;5042797;28;20035;-67
2022/10/03 05:08:11;;;;;;;6.55;0.60;;;;;;;13.57;100.00;101506.16;5045683;28;20378;-67
2022/10/03 05:10:55;;;;;;;5.40;0.98;;;;;;;13.41;100.00;101507.34;5050097;28;20032;-67
2022/10/03 05:13:21;;;;;;;5.95;0.70;;;;;;;13.48;100.00;101510.19;5044312;28;20029;-67
2022/10/03 05:16:00;;;;;;;2.38;0.60;;;;;;;13.46;100.00;101509.75;5044623;28;20056;-67
2022/10/03 05:18:51;;;;;;;4.88;0.40;;;;;;;13.55;100.00;101527.38;5051861;28;20041;-67
2022/10/03 05:21:35;;;;;;;3.30;0.80;;;;;;;13.53;100.00;101526.13;5050916;28;20052;-67
2022/10/03 05:24:03;;;;;;;2.10;0.43;;;;;;;13.43;100.00;101519.34;5048878;28;20040;-67
2022/10/03 05:26:38;;;;;;;0.68;0.30;;;;;;;13.56;100.00;101528.94;5048022;28;20044;-67
2022/10/03 05:29:14;;;;;;;1.90;0.57;;;;;;;13.53;100.00;101536.97;5044127;28;20573;-67
2022/10/03 05:31:45;;;;;;;2.08;0.77;;;;;;;13.49;100.00;101530.72;5043918;28;20444;-68
2022/10/03 05:34:20;;;;;;;7.00;1.33;;;;;;;13.47;100.00;101536.47;5047382;28;20044;-67
2022/10/03 05:37:24;;;;;;;3.85;1.00;;;;;;;13.62;100.00;101542.19;5042916;28;20116;-67
2022/10/03 05:39:57;;;;;;;1.15;0.77;;;;;;;13.61;100.00;101540.63;5049523;28;20025;-67
2022/10/03 05:43:21;;;;;;;4.80;0.70;;;;;;;13.69;100.00;101553.97;5047362;28;20432;-67
2022/10/03 05:45:59;;;;;;;1.63;0.55;;;;;;;13.49;100.00;101550.41;5031363;28;20056;-67
2022/10/03 05:48:31;;;;;;;3.70;0.73;;;;;;;13.44;100.00;101560.72;5051212;28;20080;-68
2022/10/03 05:51:17;;;;;;;3.50;1.05;;;;;;;13.49;100.00;101552.38;5051399;28;20037;-67
2022/10/03 05:53:48;;;;;;;3.72;0.90;;;;;;;13.62;100.00;101547.59;5045698;28;20535;-67
2022/10/03 05:56:27;;;;;;;3.63;0.43;;;;;;;13.69;100.00;101555.88;5047203;28;20029;-67
2022/10/03 05:59:21;;;;;;;5.45;0.98;;;;;;;13.74;100.00;101559.13;5045202;28;20032;-67
2022/10/03 06:01:57;;;;;;;5.07;0.85;;;;;;;13.62;100.00;101553.81;5051523;28;20033;-67
2022/10/03 06:04:40;;;;;;;1.30;0.40;;;;;;;13.67;100.00;101558.94;5046426;28;20133;-67
2022/10/03 06:07:21;;;;;;;1.83;0.57;;;;;;;13.55;100.00;101556.34;5047075;28;20484;-68
2022/10/03 06:10:28;;;;;;;1.60;0.98;;;;;;;13.38;100.00;101564.84;5039853;28;20035;-67
2022/10/03 06:13:18;;;;;;;1.35;0.55;;;;;;;13.29;100.00;101569.66;5028858;28;20079;-67
2022/10/03 06:15:58;;;;;;;1.00;0.60;;;;;;;13.38;100.00;101567.53;5045072;28;20032;-67
2022/10/03 06:18:44;;;;;;;5.60;1.30;;;;;;;13.36;100.00;101567.09;5048773;28;20048;-67
2022/10/03 06:21:40;;;;;;;1.25;0.75;;;;;;;13.46;100.00;101572.00;5041016;28;20529;-67
2022/10/03 06:24:18;;;;;;;3.15;1.00;;;;;;;13.46;100.00;101569.28;5047907;28;20037;-67
2022/10/03 06:27:08;;;;;;;1.27;0.57;;;;;;;13.47;100.00;101573.56;5059222;28;20084;-67
2022/10/03 06:29:55;;;;;;;2.88;1.35;;;;;;;13.64;100.00;101575.09;5046658;28;20076;-67
2022/10/03 06:32:26;;;;;;;1.70;0.77;;;;;;;13.77;100.00;101571.94;5046604;28;20338;-67
2022/10/03 06:35:28;;;;;;;1.42;0.85;;;;;;;13.80;100.00;101571.22;5043714;28;20033;-67
2022/10/03 06:37:53;;;;;;;;;;;;;;;13.74;100.00;101569.94;5048514;28;20033;-67
2022/10/03 06:41:11;;;;;;;1.83;0.80;;;;;;;13.63;100.00;101574.31;5048023;28;19923;-67
2022/10/03 06:43:56;;;;;;;7.07;0.60;;;;;;;13.89;100.00;101588.06;5044483;28;20041;-67
2022/10/03 06:46:36;;;;;;;3.33;0.82;;;;;;;14.05;100.00;101586.06;5045877;28;20071;-67
2022/10/03 06:49:02;;;;;;;7.38;1.42;;;;;;;14.05;100.00;101593.44;5048357;28;20037;-67
2022/10/03 06:51:58;;;;;;;2.28;0.80;;;;;;;14.08;100.00;101588.09;5042709;28;20037;-67
2022/10/03 06:54:29;;;;;;;3.78;0.75;;;;;;;14.21;100.00;101592.22;5046184;28;20033;-67
2022/10/03 06:57:10;;;;;;;2.83;0.70;;;;;;;14.09;100.00;101589.66;5046123;28;20128;-67
2022/10/03 06:59:58;;;;;;;3.95;1.45;;;;;;;14.26;100.00;101596.59;5042817;28;20124;-67
2022/10/03 07:02:30;;;;;;;2.20;1.02;;;;;;;14.37;100.00;101594.91;5043828;28;20048;-67
2022/10/03 07:05:04;;;;;;;;;;;;;;;14.54;100.00;101591.75;5037469;28;20082;-67
2022/10/03 07:07:44;;;;;;;3.97;0.88;;;;;;;14.51;100.00;101591.69;5041727;28;19920;-67
2022/10/03 07:11:01;;;;;;;6.00;1.13;;;;;;;14.51;100.00;101597.13;5046577;28;20086;-68
2022/10/03 07:13:33;;;;;;;2.67;0.82;;;;;;;14.52;100.00;101604.13;5027345;28;20482;-68
2022/10/03 07:16:27;;;;;;;8.02;0.95;;;;;;;14.62;100.00;101603.53;5043440;28;20045;-67
2022/10/03 07:19:01;;;;;;;5.03;0.70;;;;;;;14.69;100.00;101609.84;5045482;28;20037;-67
2022/10/03 07:21:50;;;;;;;2.15;0.80;;;;;;;14.63;100.00;101605.91;5034119;28;21317;-67
2022/10/03 07:24:40;;;;;;;2.92;0.80;;;;;;;14.73;100.00;101610.72;5048289;28;20024;-67
2022/10/03 07:27:07;;;;;;;0.80;0.45;;;;;;;14.96;100.00;101618.91;5040842;28;20448;-67
2022/10/03 07:29:35;;;;;;;1.55;0.82;;;;;;;15.08;100.00;101613.28;5045758;28;20033;-68
2022/10/03 07:32:25;;;;;;;1.00;0.52;;;;;;;14.93;100.00;101627.75;5059780;22;20093;-68
2022/10/03 07:35:09;;;;;;;7.10;0.75;;;;;;;15.04;100.00;101626.78;5023052;28;20045;-70
2022/10/03 07:41:31;;;;;;;4.50;0.65;;;;;;;15.22;100.00;101627.91;5031743;28;20025;-70
2022/10/03 07:44:34;;;;;;;3.30;0.82;;;;;;;15.33;100.00;101628.06;5015867;28;20029;-71
2022/10/03 07:47:28;;;;;;;5.93;0.80;;;;;;;15.29;100.00;101627.25;5022266;28;20033;-67
2022/10/03 07:50:29;;;;;;;6.50;1.13;;;;;;;15.49;100.00;101631.47;5028849;28;20025;-69
2022/10/03 07:53:15;;;;;;;5.57;0.95;;;;;;;15.61;100.00;101635.94;5019678;28;20469;-68
2022/10/03 07:56:19;;;;;;;3.03;1.13;;;;;;;15.61;100.00;101627.78;5021269;28;20041;-68
2022/10/03 07:59:32;;;;;;;7.50;0.70;;;;;;;15.78;100.00;101641.63;4980618;28;20421;-68
2022/10/03 08:02:12;;;;;;;3.47;0.95;;;;;;;15.99;99.64;101646.59;4976883;28;20048;-69
2022/10/03 08:04:57;;;;;;;2.78;1.08;;;;;;;16.14;99.29;101646.41;5020199;28;20049;-68
2022/10/03 08:07:42;;;;;;;1.63;0.40;;;;;;;16.21;97.83;101643.03;5012991;28;20180;-68
2022/10/03 08:10:24;;;;;;;1.38;1.00;;;;;;;16.40;97.75;101648.31;5021573;28;20033;-67
2022/10/03 08:13:01;;;;;;;5.05;1.10;;;;;;;16.26;96.50;101638.03;5013019;28;20033;-67
2022/10/03 08:15:58;;;;;;;1.38;0.55;;;;;;;16.27;96.62;101644.28;5026949;28;20486;-67
2022/10/03 08:18:52;;;;;;;3.45;0.75;;;;;;;16.65;97.46;101648.66;5028627;28;20033;-65
2022/10/03 08:21:41;;;;;;;2.85;0.40;;;;;;;17.02;96.37;101646.72;5019768;28;20037;-67
2022/10/03 08:24:23;;;;;;;3.65;0.63;;;;;;;17.40;95.18;101651.75;5032057;28;20046;-68
2022/10/03 08:26:48;;;;;;;6.30;0.57;;;;;;;17.55;91.58;101649.97;5024402;28;20041;-69
2022/10/03 08:29:34;;;;;;;3.22;0.93;;;;;;;17.45;92.43;101640.53;5030011;28;20025;-67
2022/10/03 08:32:10;;;;;;;5.22;0.50;;;;;;;17.66;90.88;101651.63;5006155;28;20050;-67
2022/10/03 08:35:04;;;;;;;0.95;0.20;;;;;;;17.80;89.79;101649.00;5032939;28;20076;-68
2022/10/03 08:38:06;;;;;;;1.92;0.20;;;;;;;17.96;89.35;101657.66;5033925;28;20052;-69
2022/10/03 08:40:44;;;;;;;1.45;0.40;;;;;;;18.10;89.72;101645.28;5021206;28;20037;-69
2022/10/03 08:43:28;;;;;;;1.60;0.55;;;;;;;18.02;88.46;101653.41;5027023;28;20041;-68
2022/10/03 08:46:18;;;;;;;1.98;0.73;;;;;;;17.73;89.39;101659.84;5027806;28;20061;-69
2022/10/03 08:48:53;;;;;;;3.80;0.47;;;;;;;17.95;89.25;101650.66;5034067;28;20044;-70
2022/10/03 08:51:53;;;;;;;2.42;0.50;;;;;;;18.07;88.80;101646.03;5024070;28;20445;-69
2022/10/03 08:54:38;;;;;;;2.03;0.30;;;;;;;18.03;88.38;101657.72;5031054;28;20044;-68
2022/10/03 08:57:35;;;;;;;2.47;0.30;;;;;;;18.24;88.12;101650.81;5033605;28;20037;-68
2022/10/03 09:00:17;;;;;;;0.63;0.20;;;;;;;18.50;87.42;101661.50;5027881;28;20072;-68
2022/10/03 09:03:01;;;;;;;1.95;0.22;;;;;;;18.68;87.40;101665.06;5032984;28;20087;-68
2022/10/03 09:06:23;;;;;;;1.05;0.25;;;;;;;18.86;86.17;101671.38;5032812;28;20041;-68
2022/10/03 09:09:19;;;;;;;0.10;0.10;;;;;;;19.05;84.99;101673.00;5019132;28;20065;-68
2022/10/03 09:11:54;;;;;;;2.92;0.60;;;;;;;19.03;84.24;101667.88;5030093;28;20040;-68
2022/10/03 09:14:38;;;;;;;0.35;0.20;;;;;;;18.80;83.73;101664.72;5032357;28;20053;-68
2022/10/03 09:17:16;;;;;;;0.75;0.28;;;;;;;18.94;83.98;101667.50;5032791;28;20038;-68
2022/10/03 09:20:07;;;;;;;0.63;0.15;;;;;;;19.20;84.62;101658.19;5030104;28;20033;-68
2022/10/03 09:22:54;;;;;;;0.52;0.32;;;;;;;19.27;82.86;101672.63;5002730;28;20034;-68
2022/10/03 09:25:33;;;;;;;0.50;0.25;;;;;;;19.35;82.18;101676.97;5030056;28;20045;-68
2022/10/03 09:28:11;;;;;;;2.17;0.90;;;;;;;19.27;80.89;101669.91;5031331;28;20041;-67
2022/10/03 09:30:52;;;;;;;5.00;0.20;;;;;;;19.37;81.27;101666.44;5029912;28;20120;-68
2022/10/03 09:33:39;;;;;;;1.75;0.50;;;;;;;19.41;81.49;101678.16;5023424;28;20048;-68
2022/10/03 09:36:25;;;;;;;4.10;0.30;;;;;;;19.27;82.50;101666.38;5029866;28;20091;-68
2022/10/03 09:39:28;;;;;;;3.50;0.65;;;;;;;18.93;82.19;101672.16;5021891;28;20036;-68
2022/10/03 09:42:31;;;;;;;1.88;0.50;;;;;;;18.76;82.71;101672.09;5025807;28;20168;-67
2022/10/03 09:45:11;;;;;;;5.35;0.52;;;;;;;18.77;82.63;101673.69;5017470;28;20037;-67
2022/10/03 09:48:04;;;;;;;3.90;0.68;;;;;;;18.50;82.73;101675.13;5032756;28;20037;-67
2022/10/03 09:50:29;;;;;;;3.15;0.43;;;;;;;18.20;85.15;101669.88;5029957;28;20118;-67
2022/10/03 09:53:12;;;;;;;0.80;0.30;;;;;;;18.11;85.57;101664.00;5031284;28;20081;-68
2022/10/03 09:55:45;;;;;;;2.70;0.60;;;;;;;17.87;86.73;101668.13;5031499;28;20120;-67
2022/10/03 09:58:22;;;;;;;1.13;0.30;;;;;;;18.13;86.02;101671.78;5028891;28;20029;-68
2022/10/03 10:01:11;;;;;;;2.55;0.70;;;;;;;18.55;86.05;101670.09;5024038;28;20087;-67
2022/10/03 10:03:45;;;;;;;2.03;0.30;;;;;;;18.67;84.00;101674.41;5026690;28;20072;-67
2022/10/03 10:06:35;;;;;;;0.50;0.30;;;;;;;18.70;84.35;101666.25;5028560;28;20049;-67
2022/10/03 10:09:25;;;;;;;1.30;0.47;;;;;;;18.82;83.99;101665.91;5021385;28;20072;-68
2022/10/03 10:12:29;;;;;;;3.20;0.30;;;;;;;19.19;83.48;101678.47;5031871;28;20035;-68
2022/10/03 10:15:21;;;;;;;3.05;0.38;;;;;;;19.20;83.32;101669.88;4999540;28;20319;-67
2022/10/03 10:18:05;;;;;;;1.38;0.52;;;;;;;19.31;82.29;101664.44;5015788;28;20813;-68
2022/10/03 10:20:52;;;;;;;2.60;0.38;;;;;;;19.26;81.52;101662.09;5031691;28;20033;-68
2022/10/03 10:23:39;;;;;;;1.23;0.28;;;;;;;19.44;81.80;101663.69;5032210;28;20076;-69
2022/10/03 10:26:22;;;;;;;3.40;0.20;;;;;;;19.47;80.69;101662.91;5025777;28;20044;-68
2022/10/03 10:29:23;;;;;;;5.30;0.38;;;;;;;19.65;80.99;101650.03;5027438;28;20040;-70
2022/10/03 10:32:24;;;;;;;1.95;0.40;;;;;;;19.82;80.11;101655.88;5029697;28;20478;-69
2022/10/03 10:35:07;;;;;;;0.38;0.00;;;;;;;19.73;79.81;101654.31;5016519;28;20072;-69
2022/10/03 10:37:32;;;;;;;2.35;0.30;;;;;;;19.55;79.18;101653.53;5027723;28;20041;-69
2022/10/03 10:40:13;;;;;;;2.28;0.40;;;;;;;19.66;79.97;101656.28;5014602;28;20031;-69
2022/10/03 10:43:16;;;;;;;3.22;0.35;;;;;;;19.69;79.35;101650.81;5015722;28;20033;-68
2022/10/03 10:45:41;;;;;;;1.85;0.40;;;;;;;19.65;79.72;101650.03;5013368;28;20033;-68
2022/10/03 10:48:41;;;;;;;1.13;0.35;;;;;;;19.60;79.62;101655.91;5031583;28;20044;-67
2022/10/03 10:51:31;;;;;;;0.82;0.30;;;;;;;19.46;80.60;101657.81;5019729;28;20120;-69
2022/10/03 10:54:25;;;;;;;2.72;0.45;;;;;;;19.29;85.09;101662.09;5027066;28;20045;-68
2022/10/03 10:56:54;;;;;;;0.47;0.30;;;;;;;19.11;86.65;101655.81;5007563;28;20037;-70
2022/10/03 10:59:42;;;;;;;1.25;0.17;;;;;;;19.03;88.27;101654.25;5026008;28;20136;-68
2022/10/03 11:02:36;;;;;;;2.35;0.30;;;;;;;19.00;90.39;101652.28;5025138;28;20470;-69
2022/10/03 11:05:17;;;;;;;1.55;0.50;;;;;;;19.39;89.57;101655.09;5028287;28;20064;-68
2022/10/03 11:07:49;;;;;;;5.07;0.30;;;;;;;19.68;89.06;101654.72;5031405;28;20033;-68
2022/10/03 11:10:27;;;;;;;;;;;;;;;19.76;88.26;101653.50;5029909;28;20025;-68
2022/10/03 11:13:25;;;;;;;0.82;0.25;;;;;;;19.82;87.71;101653.94;5024597;28;19919;-68
2022/10/03 11:16:20;;;;;;;0.90;0.22;;;;;;;19.80;86.77;101646.09;5029207;28;20041;-69
2022/10/03 11:18:59;;;;;;;2.50;0.20;;;;;;;19.42;85.75;101646.91;5028133;28;20037;-69
2022/10/03 11:21:46;;;;;;;1.75;0.20;;;;;;;19.27;85.55;101655.44;5025513;28;20544;-68
2022/10/03 11:24:56;;;;;;;0.13;0.10;;;;;;;18.99;86.28;101648.00;5030708;28;20036;-69
2022/10/03 11:27:40;;;;;;;1.70;0.47;;;;;;;18.98;86.87;101648.38;5021806;28;20504;-67
2022/10/03 11:30:14;;;;;;;1.95;0.25;;;;;;;19.03;88.02;101654.25;5021014;28;20037;-68
2022/10/03 11:33:04;;;;;;;1.55;0.22;;;;;;;19.18;87.37;101655.06;5030587;28;20045;-68
2022/10/03 11:36:02;;;;;;;1.20;0.32;;;;;;;19.37;86.46;101660.19;5025940;28;20037;-68
2022/10/03 11:38:31;;;;;;;0.60;0.17;;;;;;;19.45;85.55;101657.03;5029570;28;20040;-69
2022/10/03 11:41:15;;;;;;;1.15;0.50;;;;;;;19.46;84.71;101660.56;5013205;28;20041;-68
2022/10/03 11:44:15;;;;;;;0.82;0.32;;;;;;;19.48;84.39;101653.53;5019137;28;20478;-68
2022/10/03 11:47:17;;;;;;;1.02;0.35;;;;;;;19.55;84.75;101664.47;5015994;28;20029;-68
2022/10/03 11:50:12;;;;;;;0.40;0.17;;;;;;;19.49;84.94;101654.34;5030691;28;20497;-68
2022/10/03 11:53:10;;;;;;;2.58;0.45;;;;;;;19.37;85.20;101668.38;5026434;28;20037;-68
2022/10/03 11:55:41;;;;;;;1.92;0.20;;;;;;;19.18;84.84;101661.28;5020066;28;20040;-69
2022/10/03 11:58:11;;;;;;;1.60;0.30;;;;;;;19.20;83.54;101663.66;5030814;28;20095;-68
2022/10/03 12:00:40;;;;;;;0.35;0.10;;;;;;;19.33;81.92;101662.13;5023594;28;20046;-67
2022/10/03 12:03:12;;;;;;;0.80;0.13;;;;;;;19.32;81.37;101672.25;5024389;28;20120;-67
2022/10/03 12:09:26;;;;;;;0.98;0.10;;;;;;;19.81;82.26;101668.75;5031330;28;20036;-68
2022/10/03 12:12:26;;;;;;;2.30;0.43;;;;;;;20.24;80.36;101664.00;5027987;28;20032;-68
2022/10/03 12:14:59;;;;;;;0.17;0.17;;;;;;;20.37;79.13;101668.66;5016506;28;20048;-67
2022/10/03 12:17:28;;;;;;;0.63;0.28;;;;;;;20.16;78.15;101652.28;5009830;28;20061;-67
2022/10/03 12:20:31;;;;;;;1.42;0.20;;;;;;;20.05;79.06;101657.00;5004554;28;20068;-68
2022/10/03 12:23:37;;;;;;;0.52;0.30;;;;;;;20.01;79.37;101652.72;5029772;28;20042;-68
2022/10/03 12:26:06;;;;;;;1.35;0.10;;;;;;;20.08;79.73;101666.34;4969807;28;20426;-68
2022/10/03 12:28:38;;;;;;;2.00;0.13;;;;;;;19.94;79.87;101652.72;5023968;28;20110;-69
2022/10/03 12:31:10;;;;;;;0.88;0.22;;;;;;;19.70;81.30;101646.88;5027028;28;20039;-68
2022/10/03 12:33:50;;;;;;;1.20;0.20;;;;;;;19.55;80.95;101653.53;5010957;28;20041;-68
2022/10/03 12:36:27;;;;;;;0.20;0.10;;;;;;;19.72;80.58;101651.97;5022106;28;20172;-68
2022/10/03 12:39:14;;;;;;;0.60;0.20;;;;;;;19.57;81.14;101653.94;5029725;28;20033;-68
2022/10/03 12:42:14;;;;;;;2.83;0.40;;;;;;;19.22;81.29;101662.06;5029345;28;20033;-68
2022/10/03 12:44:58;;;;;;;0.43;0.20;;;;;;;19.32;82.01;101655.88;5018853;28;20053;-68
2022/10/03 12:47:44;;;;;;;0.90;0.30;;;;;;;19.15;81.99;101653.09;4992769;28;20034;-68
2022/10/03 12:50:21;;;;;;;1.13;0.22;;;;;;;19.31;81.54;101662.50;5017700;28;20037;-68
2022/10/03 12:53:01;;;;;;;2.03;0.45;;;;;;;19.40;81.69;101664.84;5029803;28;20040;-67
2022/10/03 12:55:33;;;;;;;1.17;0.05;;;;;;;19.39;82.04;101669.56;5023303;28;20061;-68
2022/10/03 12:58:09;;;;;;;0.95;0.00;;;;;;;19.42;81.26;101668.75;5032026;28;20176;-69